createdAt,value
2022-12-13T00:02:54.236Z,998.48
2022-12-13T00:22:54.624Z,998.32
2022-12-13T00:42:54.006Z,998.1
2022-12-13T01:03:16.041Z,997.97
2022-12-13T01:22:55.400Z,997.76
2022-12-13T01:43:18.621Z,997.87
2022-12-13T02:03:22.440Z,997.8
2022-12-13T02:23:16.746Z,997.59
2022-12-13T02:43:36.158Z,997.56
2022-12-13T03:02:54.162Z,997.36
2022-12-13T03:22:54.056Z,997.19
2022-12-13T03:43:24.022Z,997.07
2022-12-13T04:02:54.574Z,996.99
2022-12-13T04:23:16.149Z,997.05
2022-12-13T04:43:15.931Z,997.07
2022-12-13T05:02:55.026Z,996.9
2022-12-13T05:22:53.434Z,996.89
2022-12-13T05:43:44.369Z,996.77
2022-12-13T06:03:13.349Z,996.85
2022-12-13T06:23:17.066Z,996.72
2022-12-13T06:42:54.269Z,996.74
2022-12-13T07:03:09.694Z,996.93
2022-12-13T07:22:59.587Z,996.99
2022-12-13T07:43:17.422Z,997.19
2022-12-13T08:02:54.396Z,997.33
2022-12-13T08:23:03.668Z,997.52
2022-12-13T08:42:56.131Z,997.49
2022-12-13T09:03:16.389Z,997.77
2022-12-13T09:23:25.407Z,997.78
2022-12-13T09:43:44.292Z,997.77
2022-12-13T10:02:53.883Z,997.7
2022-12-13T10:24:37.205Z,997.74
2022-12-13T10:43:15.968Z,997.51
2022-12-13T11:03:15.741Z,997.45
2022-12-13T11:23:36.516Z,997.33
2022-12-13T11:42:53.916Z,996.98
2022-12-13T12:02:52.813Z,997.21
2022-12-13T12:23:20.725Z,997.19
2022-12-13T12:44:21.941Z,997.09
2022-12-13T13:03:23.801Z,997.09
2022-12-13T13:23:41.834Z,997.02
2022-12-13T13:43:16.147Z,997.07
2022-12-13T14:03:35.793Z,997.18
2022-12-13T14:23:37.444Z,997.24
2022-12-13T14:43:02.637Z,997.01
2022-12-13T15:03:16.989Z,997
2022-12-13T15:23:15.625Z,996.95
2022-12-13T15:42:53.307Z,996.97
2022-12-13T16:02:53.207Z,997.02
2022-12-13T16:23:09.641Z,997.06
2022-12-13T16:42:54.628Z,996.87
2022-12-13T17:02:55.764Z,996.7
2022-12-13T17:23:18.849Z,996.58
2022-12-13T17:43:02.225Z,996.41
2022-12-13T18:02:56.584Z,996.46
2022-12-13T18:23:17.470Z,996.75
2022-12-13T18:42:53.211Z,996.38
2022-12-13T19:02:55.154Z,996.39
2022-12-13T19:22:54.007Z,996.3
2022-12-13T19:43:16.569Z,995.99
2022-12-13T20:03:37.047Z,996.01
2022-12-13T20:23:30.702Z,996
2022-12-13T20:42:53.826Z,995.83
2022-12-13T21:03:37.003Z,995.8
2022-12-13T21:22:55.346Z,995.79
2022-12-13T21:42:53.929Z,995.76
2022-12-13T22:03:16.497Z,995.72
2022-12-13T22:22:54.888Z,995.58
2022-12-13T22:42:55.811Z,995.51
2022-12-13T23:03:09.781Z,995.48
2022-12-13T23:23:36.535Z,995.21
2022-12-13T23:43:39.065Z,995.03
